Weather observations for the past three days for
Torrington Municipal Airport
Imperial (Metric)
Date Time (mdt) Wind (mph) Vis. (mi.) Weather Sky Cond. Temperature (ºF) Relative Humidity Wind Chill (°F) Heat Index (°F) Pressure Precipitation (in)
Air Dwpt 6 hour altimeter (in) sea level (mb) 1 hr 3 hr 6 hr
Max. Min.
09 02:53 W 3 10.00 Mostly Cloudy BKN110 61 37 41% 29.85 1006.5
09 01:53 N 8 10.00 Overcast OVC100 59 37 44% 29.87 1007.5
09 00:53 S 5 10.00 Overcast FEW055 FEW070 OVC100 55.9 36 47% 29.88 1008.3
08 23:53 N 6 10.00 Mostly Cloudy BKN100 55.9 36 71.1 55.9 47% 29.87 1008.2
08 22:53 S 5 10.00 Mostly Cloudy FEW095 BKN120 59 32 36% 29.88 1008.3
08 21:53 SE 5 10.00 Partly Cloudy SCT110 59 30 33% 29.88 1008.6
08 20:53 NE 6 10.00 A Few Clouds FEW120 57.9 32 38% 29.86 1008.4
08 19:53 Calm 10.00 Fair CLR 66.9 28 23% 29.85 1007.8
08 18:53 W 8 10.00 Fair CLR 70 28 21% 29.86 1007.9
08 17:53 W 9 10.00 Fair CLR 70 27 73 64.9 20% 29.87 1008.4
08 16:53 NW 9 10.00 Partly Cloudy SCT100 71.1 27 19% 29.88 1008.6
08 15:53 NW 12 G 21 10.00 A Few Clouds FEW100 73 27 18% 29.9 1009.1
08 14:53 NW 14 G 20 10.00 Fair CLR 71.1 27 19% 29.92 1009.9
08 13:53 Calm 10.00 Fair CLR 70 28 21% 29.93 1010.6
08 12:53 N 8 G 20 10.00 A Few Clouds FEW090 68 30 24% 29.94 1010.9
08 11:53 NW 14 G 24 10.00 Fair CLR 66 30 68 46.9 26% 29.96 1011.7
08 10:53 NW 12 G 21 10.00 Fair CLR 64 35.1 34% 29.98 1012.3
08 09:53 NW 17 G 28 10.00 Fair CLR 61 37 41% 29.99 1012.8
08 08:53 W 10 G 18 10.00 Fair CLR 57.9 42.1 56% 29.99 1013.3
08 07:53 NW 9 10.00 Fair CLR 53.1 42.1 66% 30 1013.4
08 06:53 NW 6 10.00 Fair CLR 48.9 41 74% 47 29.98 1013.1
08 05:53 NW 8 10.00 Fair CLR 46.9 42.1 52 46.9 83% 44 29.96 1012.6
08 04:53 NW 8 10.00 Partly Cloudy SCT070 48.9 44.1 83% 46 29.96 1012.1
08 03:53 W 7 10.00 Partly Cloudy SCT085 48.9 44.1 83% 46 29.95 1012.2
08 02:53 NW 6 10.00 Mostly Cloudy SCT075 BKN090 48.9 44.1 83% 47 29.95 1011.7
08 01:53 W 7 10.00 A Few Clouds FEW120 50 44.1 80% 48 29.95 1011.5
08 00:53 W 9 10.00 Overcast OVC100 51.1 45 80% 29.96 1011.6
07 23:53 W 5 10.00 Overcast SCT060 BKN080 OVC100 52 42.1 61 51.1 69% 29.96 1011.5
07 22:53 NW 6 10.00 Mostly Cloudy BKN070 BKN085 53.1 42.1 66% 29.95 1011.6
07 21:53 N 10 10.00 Overcast FEW080 OVC100 54 43 67% 29.94 1010.7
07 20:53 NW 5 10.00 Mostly Cloudy BKN100 54 43 67% 29.92 1010.3
07 19:53 S 3 10.00 Mostly Cloudy SCT070 BKN090 57.9 45 62% 29.89 1009.6
07 18:53 S 7 10.00 Mostly Cloudy BKN075 BKN090 60.1 45 58% 29.87 1009.3
07 17:53 SE 5 10.00 Mostly Cloudy BKN075 61 43 70 57 52% 29.85 1009.0 0.04
07 16:53 SE 5 10.00 A Few Clouds FEW060 FEW110 63 45 52% 29.86 1008.8 0.01
07 15:53 N 16 G 21 10.00 Light Rain BKN065 OVC080 59 44.1 58% 29.86 1009.3 0.03
07 14:53 W 17 G 28 10.00 Partly Cloudy SCT070 SCT110 64.9 36 34% 29.85 1008.6
07 13:53 W 10 G 22 10.00 Fair CLR 66 36 33% 29.87 1009.4
07 12:53 W 14 G 24 10.00 Mostly Cloudy SCT095 BKN120 66 36 33% 29.88 1010.1
07 11:53 NW 9 G 25 8.00 A Few Clouds FEW080 64.9 35.1 66 42.1 33% 29.89 1010.5
07 10:53 W 18 G 31 10.00 A Few Clouds FEW090 FEW110 63 35.1 35% 29.91 1010.8
07 09:53 W 17 G 29 9.00 Fair CLR 64.9 30.9 28% 29.91 1010.4
07 08:53 W 10 10.00 Fair CLR 61 30 31% 29.9 1010.3
07 07:53 W 6 10.00 Fair CLR 55 28.9 37% 29.9 1010.3
07 06:53 W 6 10.00 Fair CLR 48 28 46% 46 29.88 1010.3
07 05:53 Calm 10.00 Fair CLR 44.1 27 48 37.9 51% 29.87 1010.0
07 04:53 NW 10 10.00 Fair CLR 46 26.1 46% 42 29.87 1009.7
07 03:53 W 10 10.00 Fair CLR 46 26.1 46% 42 29.87 1010.1
07 02:53 W 9 10.00 Fair CLR 44.1 26.1 49% 40 29.88 1010.7
07 01:53 W 6 10.00 Fair CLR 41 26.1 55% 38 29.88 1011.1
07 00:53 W 7 10.00 Fair CLR 37.9 24.1 57% 33 29.9 1012.5
06 23:53 SW 5 10.00 Fair CLR 37.9 27 55.9 36 65% 35 29.92 1013.3
06 22:53 SE 7 10.00 Fair CLR 42.1 26.1 53% 38 29.92 1013.2
06 21:53 SE 6 10.00 Fair CLR 44.1 19.9 38% 41 29.93 1013.5
06 20:53 SE 6 10.00 Fair CLR 48.9 17.1 28% 47 29.93 1013.3
06 19:53 W 3 10.00 Fair CLR 52 16 24% 29.93 1013.5
06 18:53 NW 8 10.00 Fair CLR 54 16 22% 29.95 1014.2
06 16:53 SW 8 10.00 Partly Cloudy SCT080 55 18 23% 29.97 1015.1
06 15:53 W 6 10.00 Partly Cloudy SCT070 51.1 19 28% 30.01 1016.5
06 14:53 SW 15 G 22 10.00 Partly Cloudy SCT070 52 17.1 25% 30.04 1017.2
06 13:53 S 9 G 22 10.00 Partly Cloudy SCT070 52 16 24% 30.06 1017.9
06 12:53 SW 8 8.00 Partly Cloudy SCT070 46.9 14 26% 44 30.08 1019.0
06 11:53 W 13 G 18 10.00 A Few Clouds FEW060 48 16 48 28 28% 43 30.1 1019.5
06 10:53 W 8 9.00 Fair CLR 43 18 37% 39 30.11 1020.2
06 09:53 N 8 10.00 A Few Clouds FEW040 41 19 41% 36 30.11 1020.3
06 08:53 SW 6 10.00 Fair CLR 39 25 57% 35 30.12 1020.4
06 07:53 NW 5 9.00 Fair CLR 35.1 25 67% 32 30.13 1021.2
06 06:53 NW 3 10.00 Fair CLR 30.9 24.1 76% 30.11 1020.8
06 05:53 NW 6 10.00 Fair CLR 28 24.1 37 28 85% 22 30.09 1020.5
06 04:53 NW 6 10.00 A Few Clouds FEW120 30 25 82% 25 30.08 1019.9
06 03:53 NW 6 10.00 Fair CLR 30.9 25 79% 26 30.08 1019.6
Date Time (mdt) Wind (mph) Vis. (mi.) Weather Sky Cond. Air Dwpt Max. Min. Relative Humidity Wind Chill (°F) Heat Index (°F) altimeter (in) sea level (mb) 1 hr 3 hr 6 hr
6 hour
Temperature (ºF) Pressure Precipitation (in)